< < Back
Terminal Aerodrome Forecast


Current Version              Previous Versions:   1  2  3  4  5  6  7  8  9  

Terminal Aerodrome Forecast

305
FTUS42 KFFC 290931 AAB
TAFATL
TAF AMD
KATL 290931Z 2910/3012 14003KT P6SM BKN200
     FM291500 17007KT P6SM BKN200
     FM291800 19010KT P6SM BKN080
     FM292300 20009KT P6SM SCT025 BKN080
     FM300100 23006KT P6SM BKN025 OVC080
     FM300300 26006KT P6SM BKN012 PROB30 3003/3008 -RA BKN012=

Latest METAR

008
SAUS70 KWBC 291200 RRF
MTRATL
METAR KATL 291152Z 17004KT 10SM FEW200 SCT250 03/M02 A3027 RMK AO2
SLP257 T00281022 10056 20022 55005


USA.gov is the U.S. government's official web portal to all federal, state and local government web resources and services.